Time;durP1;ratioP1;P1;durP2;ratioP2;P2;SDS_P1;SDS_P2;PMS_P1;PMS_P2;Temp;Humidity;BMP_temperature;BMP_pressure;BME280_temperature;BME280_humidity;BME280_pressure;Samples;Min_cycle;Max_cycle;Signal;HPM_P1;HPM_P2
2023/07/20 00:00:46;;;;;;;;;;;;;;;15.83;100.00;101383.78;4992744;28;20484;-72
2023/07/20 00:03:16;;;;;;;;;;;;;;;15.88;100.00;101384.25;4993360;28;20360;-71
2023/07/20 00:05:41;;;;;;;;;;;;;;;15.91;100.00;101383.13;4988659;28;19935;-72
2023/07/20 00:08:06;;;;;;;;;;;;;;;15.92;100.00;101371.28;4978203;28;20305;-72
2023/07/20 00:10:31;;;;;;;;;;;;;;;15.96;100.00;101378.97;4977203;28;20366;-72
2023/07/20 00:12:57;;;;;;;;;;;;;;;15.99;100.00;101377.84;4975318;28;20250;-72
2023/07/20 00:15:22;;;;;;;;;;;;;;;15.96;100.00;101375.44;4973900;28;20398;-72
2023/07/20 00:17:47;;;;;;;;;;;;;;;15.92;100.00;101380.25;4992635;28;20415;-72
2023/07/20 00:20:12;;;;;;;;;;;;;;;15.86;100.00;101388.97;4994977;28;19993;-72
2023/07/20 00:22:37;;;;;;;;;;;;;;;15.95;100.00;101381.84;4991516;28;21568;-72
2023/07/20 00:25:03;;;;;;;;;;;;;;;15.96;100.00;101389.81;4988033;28;20386;-71
2023/07/20 00:27:28;;;;;;;;;;;;;;;15.95;100.00;101389.97;4990506;28;20412;-72
2023/07/20 00:29:53;;;;;;;;;;;;;;;15.83;100.00;101375.66;4992041;28;19964;-71
2023/07/20 00:32:19;;;;;;;;;;;;;;;15.88;100.00;101395.94;4977939;28;20020;-71
2023/07/20 00:34:44;;;;;;;;;;;;;;;15.91;100.00;101391.25;4975725;28;20402;-71
2023/07/20 00:37:09;;;;;;;;;;;;;;;16.00;100.00;101379.56;4990887;28;20491;-71
2023/07/20 00:39:34;;;;;;;;;;;;;;;16.04;100.00;101383.66;4990972;28;19924;-72
2023/07/20 00:42:00;;;;;;;;;;;;;;;16.03;100.00;101385.53;4991915;28;19929;-72
2023/07/20 00:44:25;;;;;;;;;;;;;;;16.04;100.00;101392.66;4972199;28;20054;-72
2023/07/20 00:46:50;;;;;;;;;;;;;;;15.98;100.00;101378.84;4975960;28;19929;-72
2023/07/20 00:49:16;;;;;;;;;;;;;;;15.99;100.00;101380.56;4990309;28;19936;-72
2023/07/20 00:51:41;;;;;;;;;;;;;;;15.97;100.00;101385.25;4991287;28;20723;-72
2023/07/20 00:54:06;;;;;;;;;;;;;;;15.93;100.00;101392.78;4992355;28;19929;-72
2023/07/20 00:56:32;;;;;;;;;;;;;;;15.86;100.00;101383.53;5012609;28;20052;-72
2023/07/20 00:58:57;;;;;;;;;;;;;;;15.84;100.00;101388.22;4974870;28;19929;-73
2023/07/20 01:01:22;;;;;;;;;;;;;;;15.84;100.00;101394.47;4973753;28;19960;-72
2023/07/20 01:03:48;;;;;;;;;;;;;;;15.83;100.00;101387.34;4974551;28;20020;-72
2023/07/20 01:06:30;;;;;;;;;;;;;;;15.81;100.00;101391.19;4993466;28;20304;-72
2023/07/20 01:08:58;;;;;;;;;;;;;;;15.87;100.00;101398.78;4990896;28;19924;-72
2023/07/20 01:11:44;;;;;;;;;;;;;;;15.83;100.00;101389.19;5010969;28;19925;-72
2023/07/20 01:14:09;;;;;;;;;;;;;;;15.83;100.00;101395.47;4981877;28;20355;-72
2023/07/20 01:16:34;;;;;;;;;;;;;;;15.80;100.00;101400.31;4993865;28;19921;-72
2023/07/20 01:19:00;;;;;;;;;;;;;;;15.80;100.00;101394.91;4972542;28;20103;-72
2023/07/20 01:21:26;;;;;;;;;;;;;;;15.83;100.00;101400.88;4997011;28;19962;-72
2023/07/20 01:24:10;;;;;;;;;;;;;;;15.82;100.00;101404.56;4997168;28;20504;-72
2023/07/20 01:26:41;;;;;;;;;;;;;;;15.80;100.00;101403.03;5015546;28;20394;-72
2023/07/20 01:29:11;;;;;;;;;;;;;;;15.76;100.00;101407.84;4992140;28;19925;-72
2023/07/20 01:31:37;;;;;;;;;;;;;;;15.77;100.00;101401.44;4978696;28;20380;-72
2023/07/20 01:34:03;;;;;;;;;;;;;;;15.73;100.00;101402.72;4984943;28;19951;-73
2023/07/20 01:36:29;;;;;;;;;;;;;;;15.65;100.00;101403.41;4996325;28;20157;-72
2023/07/20 01:38:54;;;;;;;;;;;;;;;15.60;100.00;101398.41;4990840;28;19928;-72
2023/07/20 01:41:20;;;;;;;;;;;;;;;15.57;100.00;101393.28;4999954;28;19925;-72
2023/07/20 01:43:45;;;;;;;;;;;;;;;15.53;100.00;101399.97;4998059;28;19925;-72
2023/07/20 01:46:11;;;;;;;;;;;;;;;15.48;100.00;101395.97;5003692;28;19929;-72
2023/07/20 01:48:36;;;;;;;;;;;;;;;15.40;100.00;101400.22;5011610;28;20454;-72
2023/07/20 01:51:01;;;;;;;;;;;;;;;15.37;100.00;101399.63;4995357;28;19925;-72
2023/07/20 01:53:26;;;;;;;;;;;;;;;15.33;100.00;101398.19;5015255;28;19924;-72
2023/07/20 01:55:55;;;;;;;;;;;;;;;15.30;100.00;101394.78;5011277;28;19925;-72
2023/07/20 01:58:20;;;;;;;;;;;;;;;15.28;100.00;101398.63;4999148;28;19925;-72
2023/07/20 02:00:45;;;;;;;;;;;;;;;15.27;100.00;101402.31;4989272;28;19925;-72
2023/07/20 02:03:11;;;;;;;;;;;;;;;15.27;100.00;101399.59;5013625;28;19929;-72
2023/07/20 02:05:37;;;;;;;;;;;;;;;15.23;100.00;101395.47;4997061;28;19944;-72
2023/07/20 02:08:02;;;;;;;;;;;;;;;15.17;100.00;101410.41;4998598;28;19928;-72
2023/07/20 02:10:27;;;;;;;;;;;;;;;15.18;100.00;101408.53;4997550;28;19921;-72
2023/07/20 02:12:52;;;;;;;;;;;;;;;15.12;100.00;101408.06;4996045;28;20233;-72
2023/07/20 02:15:18;;;;;;;;;;;;;;;15.07;100.00;101404.94;4975383;28;20335;-72
2023/07/20 02:17:43;;;;;;;;;;;;;;;14.95;100.00;101408.72;4980827;28;20274;-72
2023/07/20 02:20:12;;;;;;;;;;;;;;;14.94;100.00;101415.97;4989502;28;19964;-72
2023/07/20 02:22:37;;;;;;;;;;;;;;;14.82;100.00;101400.81;4982036;28;20438;-72
2023/07/20 02:25:07;;;;;;;;;;;;;;;14.75;100.00;101403.22;4991997;28;20016;-72
2023/07/20 02:27:32;;;;;;;;;;;;;;;14.63;100.00;101404.22;4981252;28;20362;-72
2023/07/20 02:29:57;;;;;;;;;;;;;;;14.57;100.00;101405.63;4995367;28;19943;-72
2023/07/20 02:32:23;;;;;;;;;;;;;;;14.48;100.00;101406.41;4995266;28;19924;-72
2023/07/20 02:34:48;;;;;;;;;;;;;;;14.41;100.00;101400.66;4978129;28;19925;-72
2023/07/20 02:37:13;;;;;;;;;;;;;;;14.32;100.00;101405.00;4997445;28;19921;-72
2023/07/20 02:39:39;;;;;;;;;;;;;;;14.31;100.00;101410.53;4999455;28;19964;-72
2023/07/20 02:42:04;;;;;;;;;;;;;;;14.33;100.00;101408.56;5002161;28;19929;-72
2023/07/20 02:44:30;;;;;;;;;;;;;;;14.34;100.00;101415.69;4996765;28;19925;-72
2023/07/20 02:46:55;;;;;;;;;;;;;;;14.33;100.00;101422.94;4998955;28;20215;-72
2023/07/20 02:49:20;;;;;;;;;;;;;;;14.30;100.00;101425.06;5013077;28;19960;-72
2023/07/20 02:51:46;;;;;;;;;;;;;;;14.25;100.00;101425.41;4982833;28;20138;-72
2023/07/20 02:54:11;;;;;;;;;;;;;;;14.16;100.00;101418.09;4998360;28;19921;-74
2023/07/20 02:56:36;;;;;;;;;;;;;;;14.06;100.00;101435.06;4981360;28;20028;-72
2023/07/20 02:59:02;;;;;;;;;;;;;;;13.94;100.00;101430.69;4995253;28;19952;-72
2023/07/20 03:01:29;;;;;;;;;;;;;;;13.88;100.00;101439.31;5002975;28;20351;-72
2023/07/20 03:03:54;;;;;;;;;;;;;;;13.81;100.00;101441.63;4995575;28;20006;-72
2023/07/20 03:06:19;;;;;;;;;;;;;;;13.81;100.00;101447.03;4985696;28;20313;-72
2023/07/20 03:08:47;;;;;;;;;;;;;;;13.77;100.00;101445.59;4993666;28;19936;-72
2023/07/20 03:11:12;;;;;;;;;;;;;;;13.72;100.00;101451.34;4977560;28;19921;-73
2023/07/20 03:13:37;;;;;;;;;;;;;;;13.66;100.00;101443.75;4983690;28;19992;-72
2023/07/20 03:16:03;;;;;;;;;;;;;;;13.58;100.00;101449.75;4983344;28;19960;-72
2023/07/20 03:18:28;;;;;;;;;;;;;;;13.53;100.00;101453.81;4993749;28;19926;-72
2023/07/20 03:20:53;;;;;;;;;;;;;;;13.50;100.00;101454.94;4987828;28;19971;-72
2023/07/20 03:23:18;;;;;;;;;;;;;;;13.42;100.00;101466.31;5014264;28;19955;-72
2023/07/20 03:25:43;;;;;;;;;;;;;;;13.33;100.00;101459.81;4998842;28;20003;-72
2023/07/20 03:28:09;;;;;;;;;;;;;;;13.30;100.00;101470.00;4996677;28;20031;-72
2023/07/20 03:30:34;;;;;;;;;;;;;;;13.23;100.00;101463.34;4975519;28;20350;-72
2023/07/20 03:32:59;;;;;;;;;;;;;;;13.18;100.00;101467.28;4982360;28;19964;-72
2023/07/20 03:35:25;;;;;;;;;;;;;;;13.16;100.00;101465.69;4995264;28;20383;-72
2023/07/20 03:37:50;;;;;;;;;;;;;;;13.11;100.00;101460.63;4996710;28;19925;-72
2023/07/20 03:40:16;;;;;;;;;;;;;;;13.04;100.00;101464.81;4982847;28;19982;-72
2023/07/20 03:42:41;;;;;;;;;;;;;;;13.01;100.00;101465.06;4996186;28;19916;-73
2023/07/20 03:45:07;;;;;;;;;;;;;;;13.02;100.00;101461.38;4994561;28;19951;-72
2023/07/20 03:47:32;;;;;;;;;;;;;;;12.95;100.00;101465.53;4991905;28;19961;-72
2023/07/20 03:49:57;;;;;;;;;;;;;;;12.88;100.00;101466.00;4982353;28;19921;-72
2023/07/20 03:52:23;;;;;;;;;;;;;;;12.84;100.00;101469.06;4980761;28;19972;-73
2023/07/20 03:54:48;;;;;;;;;;;;;;;12.78;100.00;101467.72;4984242;28;19925;-72
2023/07/20 03:57:13;;;;;;;;;;;;;;;12.77;100.00;101467.81;4988798;28;20352;-72
2023/07/20 03:59:39;;;;;;;;;;;;;;;12.72;100.00;101469.00;4981525;28;20632;-72
2023/07/20 04:02:05;;;;;;;;;;;;;;;12.71;100.00;101470.00;4995028;28;20444;-72
2023/07/20 04:04:30;;;;;;;;;;;;;;;12.67;100.00;101473.06;4988961;28;19929;-72
2023/07/20 04:06:56;;;;;;;;;;;;;;;12.66;100.00;101477.59;4994025;28;20505;-72
2023/07/20 04:09:21;;;;;;;;;;;;;;;12.64;100.00;101474.16;4983061;28;19947;-72
2023/07/20 04:11:46;;;;;;;;;;;;;;;12.63;100.00;101471.56;4999134;28;19921;-72
2023/07/20 04:14:11;;;;;;;;;;;;;;;12.58;100.00;101470.06;4998620;28;19970;-72
2023/07/20 04:16:37;;;;;;;;;;;;;;;12.53;100.00;101476.81;4973146;28;19972;-73
2023/07/20 04:19:02;;;;;;;;;;;;;;;12.63;100.00;101483.22;4995854;28;20201;-72
2023/07/20 04:21:27;;;;;;;;;;;;;;;12.79;100.00;101484.72;4989311;28;19925;-72
2023/07/20 04:23:53;;;;;;;;;;;;;;;12.93;100.00;101489.91;4996155;28;20026;-72
2023/07/20 04:26:18;;;;;;;;;;;;;;;13.06;100.00;101481.72;5007212;28;19932;-73
2023/07/20 04:28:43;;;;;;;;;;;;;;;13.13;100.00;101480.25;4986214;28;19925;-72
2023/07/20 04:31:12;;;;;;;;;;;;;;;13.20;100.00;101484.19;4974164;28;20272;-72
2023/07/20 04:33:37;;;;;;;;;;;;;;;13.32;100.00;101489.59;4991761;28;19925;-72
2023/07/20 04:36:02;;;;;;;;;;;;;;;13.40;100.00;101494.38;4975176;28;19925;-73
2023/07/20 04:38:28;;;;;;;;;;;;;;;13.37;100.00;101495.50;4992575;28;20773;-72
2023/07/20 04:40:53;;;;;;;;;;;;;;;13.39;100.00;101496.19;4986409;28;19925;-72
2023/07/20 04:43:18;;;;;;;;;;;;;;;13.42;100.00;101495.16;4970610;28;19925;-72
2023/07/20 04:45:43;;;;;;;;;;;;;;;13.48;100.00;101500.91;4975006;28;20211;-73
2023/07/20 04:48:10;;;;;;;;;;;;;;;13.53;100.00;101497.00;4988343;28;20367;-73
2023/07/20 04:50:35;;;;;;;;;;;;;;;13.62;100.00;101493.56;4990013;28;19972;-72
2023/07/20 04:53:01;;;;;;;;;;;;;;;13.60;100.00;101499.06;4988362;28;20260;-72
2023/07/20 04:55:27;;;;;;;;;;;;;;;13.64;100.00;101499.66;4987854;28;20002;-72
2023/07/20 04:57:52;;;;;;;;;;;;;;;13.71;100.00;101494.66;4995735;28;19929;-72
2023/07/20 05:00:18;;;;;;;;;;;;;;;13.76;100.00;101503.25;5013525;28;19956;-73
2023/07/20 05:02:43;;;;;;;;;;;;;;;13.91;100.00;101493.88;5002116;28;20015;-73
2023/07/20 05:05:08;;;;;;;;;;;;;;;14.00;100.00;101494.97;5010923;28;20019;-73
2023/07/20 05:07:34;;;;;;;;;;;;;;;14.08;100.00;101495.19;4988262;28;19929;-73
2023/07/20 05:09:59;;;;;;;;;;;;;;;14.15;100.00;101494.72;5001313;28;20765;-73
2023/07/20 05:12:24;;;;;;;;;;;;;;;14.21;100.00;101502.28;4972963;28;20441;-73
2023/07/20 05:14:49;;;;;;;;;;;;;;;14.22;100.00;101493.19;4991794;28;20655;-73
2023/07/20 05:17:14;;;;;;;;;;;;;;;14.30;100.00;101503.38;4988871;28;20151;-73
2023/07/20 05:19:40;;;;;;;;;;;;;;;14.32;100.00;101501.38;4994391;28;19983;-73
2023/07/20 05:22:05;;;;;;;;;;;;;;;14.40;100.00;101498.91;4991310;28;19968;-73
2023/07/20 05:24:31;;;;;;;;;;;;;;;14.47;100.00;101493.84;4978944;28;20635;-73
2023/07/20 05:26:56;;;;;;;;;;;;;;;14.54;100.00;101495.91;5012052;28;19944;-73
2023/07/20 05:29:21;;;;;;;;;;;;;;;14.62;100.00;101497.09;4984585;28;20340;-73
2023/07/20 05:31:46;;;;;;;;;;;;;;;14.68;100.00;101497.47;4972299;28;20394;-73
2023/07/20 05:34:11;;;;;;;;;;;;;;;14.76;100.00;101502.22;4999462;28;20450;-73
2023/07/20 05:36:37;;;;;;;;;;;;;;;14.89;100.00;101515.56;4999673;28;20346;-73
2023/07/20 05:39:02;;;;;;;;;;;;;;;14.97;100.00;101504.06;4992915;28;20495;-73
2023/07/20 05:41:27;;;;;;;;;;;;;;;15.06;100.00;101514.09;4973925;28;20407;-73
2023/07/20 05:43:52;;;;;;;;;;;;;;;15.14;100.00;101508.88;4996049;28;20539;-73
2023/07/20 05:46:17;;;;;;;;;;;;;;;15.18;100.00;101512.19;4992095;28;19922;-73
2023/07/20 05:48:43;;;;;;;;;;;;;;;15.21;100.00;101514.63;4992708;28;19947;-73
2023/07/20 05:51:08;;;;;;;;;;;;;;;15.22;100.00;101520.88;4987939;28;20250;-73
2023/07/20 05:53:35;;;;;;;;;;;;;;;15.37;100.00;101522.22;4991299;28;20247;-73
2023/07/20 05:56:00;;;;;;;;;;;;;;;15.59;100.00;101521.19;4990730;28;19983;-73
2023/07/20 05:58:25;;;;;;;;;;;;;;;15.79;100.00;101515.00;5006088;28;20153;-73
2023/07/20 06:00:50;;;;;;;;;;;;;;;15.87;100.00;101524.19;4976370;28;20059;-72
2023/07/20 06:03:16;;;;;;;;;;;;;;;15.97;100.00;101524.22;5002226;28;19921;-73
2023/07/20 06:05:42;;;;;;;;;;;;;;;16.13;100.00;101523.69;4988516;28;19925;-72
2023/07/20 06:08:07;;;;;;;;;;;;;;;16.17;100.00;101522.41;4974708;28;19925;-73
2023/07/20 06:10:32;;;;;;;;;;;;;;;16.18;100.00;101524.13;4987713;28;19929;-73
2023/07/20 06:12:57;;;;;;;;;;;;;;;16.16;100.00;101527.97;4991153;28;20332;-73
2023/07/20 06:15:26;;;;;;;;;;;;;;;16.24;100.00;101527.28;4988414;28;19960;-73
2023/07/20 06:17:52;;;;;;;;;;;;;;;16.29;100.00;101533.97;4988551;28;19929;-73
2023/07/20 06:20:17;;;;;;;;;;;;;;;16.30;100.00;101533.00;5003954;28;19967;-72
2023/07/20 06:22:43;;;;;;;;;;;;;;;16.47;100.00;101536.00;4987904;28;19935;-71
2023/07/20 06:25:09;;;;;;;;;;;;;;;16.55;100.00;101540.72;4974774;28;19964;-71
2023/07/20 06:27:34;;;;;;;;;;;;;;;16.38;100.00;101537.69;4987875;28;19924;-72
2023/07/20 06:29:59;;;;;;;;;;;;;;;16.42;100.00;101536.44;4970204;28;19957;-72
2023/07/20 06:32:25;;;;;;;;;;;;;;;16.43;100.00;101540.84;4966356;28;20611;-72
2023/07/20 06:34:50;;;;;;;;;;;;;;;16.34;100.00;101538.97;4981300;28;20310;-72
2023/07/20 06:37:15;;;;;;;;;;;;;;;16.36;100.00;101533.44;4974158;28;20757;-72
2023/07/20 06:39:40;;;;;;;;;;;;;;;16.56;100.00;101535.16;5003307;28;20280;-72
2023/07/20 06:42:06;;;;;;;;;;;;;;;16.61;100.00;101532.00;4974230;28;20394;-72
2023/07/20 06:44:31;;;;;;;;;;;;;;;16.85;100.00;101528.00;4969458;28;19925;-73
2023/07/20 06:46:56;;;;;;;;;;;;;;;16.94;100.00;101528.00;4989664;28;19968;-72
2023/07/20 06:49:27;;;;;;;;;;;;;;;16.77;100.00;101526.88;4986783;28;19930;-72
2023/07/20 06:51:53;;;;;;;;;;;;;;;16.78;100.00;101517.75;4971138;28;20463;-73
2023/07/20 06:54:18;;;;;;;;;;;;;;;16.79;100.00;101529.44;4972590;28;20365;-73
2023/07/20 06:56:43;;;;;;;;;;;;;;;16.89;100.00;101524.88;4975845;28;19992;-73
2023/07/20 06:59:08;;;;;;;;;;;;;;;16.95;100.00;101523.44;5000890;28;19925;-72
2023/07/20 07:01:33;;;;;;;;;;;;;;;17.17;100.00;101521.41;4983898;28;19936;-72
2023/07/20 07:03:59;;;;;;;;;;;;;;;17.37;100.00;101525.78;4972397;28;19928;-73
2023/07/20 07:06:24;;;;;;;;;;;;;;;17.62;100.00;101522.56;4989671;28;19925;-73
2023/07/20 07:08:49;;;;;;;;;;;;;;;17.73;100.00;101533.25;5005319;28;20604;-72
2023/07/20 07:11:15;;;;;;;;;;;;;;;17.94;100.00;101532.97;4986854;28;20132;-73
2023/07/20 07:13:41;;;;;;;;;;;;;;;17.97;100.00;101534.56;4990317;28;19933;-72
2023/07/20 07:16:06;;;;;;;;;;;;;;;18.10;100.00;101528.78;4971628;28;19925;-73
2023/07/20 07:18:31;;;;;;;;;;;;;;;17.99;100.00;101533.41;4986678;28;19931;-71
2023/07/20 07:20:56;;;;;;;;;;;;;;;17.73;100.00;101541.41;4966776;28;20047;-71
2023/07/20 07:23:22;;;;;;;;;;;;;;;17.60;100.00;101533.59;4992036;28;19925;-72
2023/07/20 07:25:47;;;;;;;;;;;;;;;17.51;100.00;101537.19;4987795;28;19932;-71
2023/07/20 07:28:13;;;;;;;;;;;;;;;17.50;100.00;101535.47;4990194;28;19935;-71
2023/07/20 07:30:38;;;;;;;;;;;;;;;17.44;100.00;101533.34;4985380;28;20435;-72
2023/07/20 07:33:03;;;;;;;;;;;;;;;17.57;100.00;101535.72;4989726;28;20395;-71
2023/07/20 07:35:29;;;;;;;;;;;;;;;17.59;100.00;101537.31;4990186;28;19939;-72
2023/07/20 07:37:54;;;;;;;;;;;;;;;17.82;100.00;101535.03;4993722;28;19925;-72
2023/07/20 07:40:19;;;;;;;;;;;;;;;17.94;100.00;101524.00;4974046;28;19936;-72
2023/07/20 07:42:44;;;;;;;;;;;;;;;18.21;100.00;101527.72;4993063;28;19975;-72
2023/07/20 07:45:10;;;;;;;;;;;;;;;18.50;100.00;101524.78;4990314;28;19925;-73
2023/07/20 07:47:35;;;;;;;;;;;;;;;18.77;100.00;101533.88;4992955;28;20327;-72
2023/07/20 07:50:00;;;;;;;;;;;;;;;18.65;100.00;101538.69;4990981;28;19960;-72
2023/07/20 07:52:26;;;;;;;;;;;;;;;18.57;100.00;101539.47;4974046;28;20299;-72
2023/07/20 07:54:51;;;;;;;;;;;;;;;18.65;100.00;101541.41;4993473;28;19943;-72
2023/07/20 07:57:16;;;;;;;;;;;;;;;18.20;100.00;101540.44;4992298;28;19933;-71
2023/07/20 07:59:41;;;;;;;;;;;;;;;18.26;100.00;101548.00;4992254;28;19929;-72
2023/07/20 08:02:07;;;;;;;;;;;;;;;18.04;100.00;101549.25;4991355;28;19936;-71
2023/07/20 08:04:32;;;;;;;;;;;;;;;17.87;100.00;101550.91;4989398;28;19969;-70
2023/07/20 08:06:58;;;;;;;;;;;;;;;17.69;100.00;101548.13;4969156;28;19964;-70
2023/07/20 08:09:24;;;;;;;;;;;;;;;17.64;100.00;101547.72;4991676;28;19925;-70
2023/07/20 08:11:49;;;;;;;;;;;;;;;17.70;100.00;101555.28;4977779;28;20287;-70
2023/07/20 08:14:15;;;;;;;;;;;;;;;18.05;100.00;101564.56;5009712;28;19929;-70
2023/07/20 08:16:40;;;;;;;;;;;;;;;18.35;100.00;101559.81;4984036;28;20043;-73
2023/07/20 08:19:05;;;;;;;;;;;;;;;18.52;100.00;101551.84;4991521;28;19956;-70
2023/07/20 08:21:30;;;;;;;;;;;;;;;18.62;100.00;101558.03;4991819;28;19925;-71
2023/07/20 08:23:56;;;;;;;;;;;;;;;18.87;100.00;101560.97;4998507;28;19935;-70
2023/07/20 08:26:22;;;;;;;;;;;;;;;19.00;100.00;101563.31;4985727;28;19925;-70
2023/07/20 08:28:48;;;;;;;;;;;;;;;19.19;100.00;101551.41;4986838;28;19932;-70
2023/07/20 08:31:13;;;;;;;;;;;;;;;19.52;100.00;101550.75;4969850;28;19921;-70
2023/07/20 08:33:38;;;;;;;;;;;;;;;19.89;100.00;101555.06;4980896;28;19955;-71
2023/07/20 08:36:05;;;;;;;;;;;;;;;20.21;100.00;101561.66;5007315;28;20031;-71
2023/07/20 08:38:30;;;;;;;;;;;;;;;19.76;100.00;101558.22;4982769;28;19931;-69
2023/07/20 08:40:55;;;;;;;;;;;;;;;19.91;100.00;101548.41;4990612;28;20289;-71
2023/07/20 08:43:21;;;;;;;;;;;;;;;20.26;100.00;101544.78;4986788;28;19995;-71
2023/07/20 08:45:46;;;;;;;;;;;;;;;20.49;100.00;101545.84;4987177;28;19921;-71
2023/07/20 08:48:11;;;;;;;;;;;;;;;20.33;100.00;101548.56;5001510;28;19964;-70
2023/07/20 08:50:36;;;;;;;;;;;;;;;20.32;100.00;101553.16;4991107;28;20391;-70
2023/07/20 08:53:02;;;;;;;;;;;;;;;20.35;100.00;101547.38;4969860;28;20198;-70
2023/07/20 08:55:28;;;;;;;;;;;;;;;20.50;96.52;101542.13;4992771;28;19968;-71
2023/07/20 08:57:57;;;;;;;;;;;;;;;20.39;100.00;101545.19;4985510;28;19970;-69
2023/07/20 09:00:23;;;;;;;;;;;;;;;20.68;100.00;101546.56;4989590;28;20504;-70
2023/07/20 09:02:52;;;;;;;;;;;;;;;20.62;96.76;101539.91;4970148;28;19932;-71
2023/07/20 09:05:18;;;;;;;;;;;;;;;20.15;92.16;101545.97;4968757;28;19987;-69
2023/07/20 09:07:43;;;;;;;;;;;;;;;20.12;96.67;101549.00;4970524;28;19932;-70
2023/07/20 09:10:08;;;;;;;;;;;;;;;20.02;100.00;101524.63;5000302;28;19929;-70
2023/07/20 09:12:40;;;;;;;;;;;;;;;20.06;99.69;101543.19;4975730;28;19951;-70
2023/07/20 09:15:06;;;;;;;;;;;;;;;19.98;100.00;101545.91;4981101;28;19929;-70
2023/07/20 09:17:31;;;;;;;;;;;;;;;19.91;100.00;101537.53;4971949;28;19936;-71
2023/07/20 09:19:57;;;;;;;;;;;;;;;20.02;100.00;101546.44;4971750;28;19925;-71
2023/07/20 09:22:22;;;;;;;;;;;;;;;20.08;100.00;101546.63;4987019;28;19976;-71
2023/07/20 09:24:47;;;;;;;;;;;;;;;19.98;100.00;101548.63;4984393;28;20399;-71
2023/07/20 09:27:12;;;;;;;;;;;;;;;19.98;100.00;101547.78;4969455;28;19983;-72
2023/07/20 09:29:51;;;;;;;;;;;;;;;19.85;100.00;101542.75;4984567;28;20051;-71
2023/07/20 09:32:20;;;;;;;;;;;;;;;19.98;100.00;101535.00;4984860;28;20826;-72
2023/07/20 09:34:45;;;;;;;;;;;;;;;20.33;98.52;101535.78;4966674;28;19933;-72
2023/07/20 09:37:10;;;;;;;;;;;;;;;20.19;91.31;101542.72;4981899;28;19966;-71
2023/07/20 09:39:43;;;;;;;;;;;;;;;20.01;91.31;101537.38;5003861;28;19929;-71
2023/07/20 09:42:08;;;;;;;;;;;;;;;19.72;99.39;101535.91;4982113;28;19931;-71
2023/07/20 09:44:33;;;;;;;;;;;;;;;19.46;100.00;101531.34;4983997;28;19968;-70
2023/07/20 09:46:59;;;;;;;;;;;;;;;19.25;100.00;101537.16;4969718;28;19929;-69
2023/07/20 09:49:24;;;;;;;;;;;;;;;18.93;99.97;101537.75;4963576;28;20020;-70
2023/07/20 09:51:50;;;;;;;;;;;;;;;18.73;100.00;101538.78;4987473;28;20022;-70
2023/07/20 09:54:15;;;;;;;;;;;;;;;18.62;100.00;101530.84;4982114;28;19928;-70
2023/07/20 09:56:40;;;;;;;;;;;;;;;18.45;100.00;101532.53;4983001;28;19976;-69
2023/07/20 09:59:05;;;;;;;;;;;;;;;18.43;100.00;101529.13;4968280;28;19966;-70
2023/07/20 10:01:31;;;;;;;;;;;;;;;18.70;100.00;101536.38;4973823;28;20029;-71
2023/07/20 10:03:58;;;;;;;;;;;;;;;18.99;100.00;101527.13;4983467;28;19947;-71
2023/07/20 10:06:24;;;;;;;;;;;;;;;18.95;100.00;101524.81;4985105;28;19972;-69
2023/07/20 10:08:50;;;;;;;;;;;;;;;19.01;100.00;101529.66;4966850;28;19932;-70
2023/07/20 10:11:15;;;;;;;;;;;;;;;18.89;100.00;101538.06;4983516;28;19925;-71
2023/07/20 10:13:40;;;;;;;;;;;;;;;18.73;100.00;101532.47;4986212;28;19937;-69
2023/07/20 10:16:12;;;;;;;;;;;;;;;18.70;100.00;101538.22;4968634;28;19926;-69
2023/07/20 10:18:49;;;;;;;;;;;;;;;18.91;100.00;101537.88;4979147;28;20033;-69
2023/07/20 10:21:15;;;;;;;;;;;;;;;19.00;100.00;101534.25;4983524;28;19964;-70
2023/07/20 10:23:40;;;;;;;;;;;;;;;19.48;100.00;101528.44;4968906;28;20534;-69
2023/07/20 10:26:05;;;;;;;;;;;;;;;19.84;100.00;101519.25;4983794;28;20387;-70
2023/07/20 10:28:31;;;;;;;;;;;;;;;19.63;89.79;101518.63;4966009;28;19972;-69
2023/07/20 10:30:56;;;;;;;;;;;;;;;20.39;89.43;101520.63;4972052;28;19952;-70
2023/07/20 10:33:22;;;;;;;;;;;;;;;20.43;87.19;101523.88;4982908;28;19971;-71
2023/07/20 10:35:51;;;;;;;;;;;;;;;20.83;80.71;101523.06;4971457;28;20019;-69
2023/07/20 10:38:16;;;;;;;;;;;;;;;20.48;84.60;101519.59;4969465;28;19932;-69
2023/07/20 10:40:41;;;;;;;;;;;;;;;20.52;89.18;101512.78;4981549;28;20437;-69
2023/07/20 10:43:07;;;;;;;;;;;;;;;20.70;86.86;101484.50;4980531;28;20075;-70
2023/07/20 10:45:38;;;;;;;;;;;;;;;20.83;86.61;101505.84;4969230;28;20871;-70
2023/07/20 10:48:05;;;;;;;;;;;;;;;20.83;84.58;101509.44;4985003;28;19925;-70
2023/07/20 10:50:30;;;;;;;;;;;;;;;20.87;85.00;101509.94;4970951;28;20206;-70
2023/07/20 10:53:04;;;;;;;;;;;;;;;20.88;90.26;101499.88;4984209;28;20019;-70
2023/07/20 10:55:29;;;;;;;;;;;;;;;20.78;97.04;101502.78;4965310;28;19925;-70
2023/07/20 10:58:07;;;;;;;;;;;;;;;20.85;98.47;101500.22;4970985;28;19960;-70
2023/07/20 11:00:33;;;;;;;;;;;;;;;20.81;93.88;101500.56;5005801;28;19929;-70
2023/07/20 11:02:59;;;;;;;;;;;;;;;20.84;90.14;101504.81;4988119;28;19929;-70
2023/07/20 11:05:37;;;;;;;;;;;;;;;20.76;86.49;101494.75;4986423;28;20479;-70
2023/07/20 11:08:03;;;;;;;;;;;;;;;20.95;86.16;101500.88;4970490;28;19925;-70
2023/07/20 11:10:28;;;;;;;;;;;;;;;20.98;79.62;101500.53;4988987;28;20701;-70
2023/07/20 11:13:12;;;;;;;;;;;;;;;21.07;75.63;101507.69;4972841;28;20470;-70
2023/07/20 11:15:44;;;;;;;;;;;;;;;20.90;78.12;101490.47;5006497;28;20707;-70
2023/07/20 11:18:12;;;;;;;;;;;;;;;21.22;87.02;101509.72;4989018;28;20207;-70
2023/07/20 11:20:38;;;;;;;;;;;;;;;21.25;81.51;101501.16;4985848;28;19929;-70
2023/07/20 11:23:03;;;;;;;;;;;;;;;21.43;84.21;101498.22;4991298;28;19929;-70
2023/07/20 11:25:35;;;;;;;;;;;;;;;21.61;85.74;101502.59;4987246;28;19971;-70
2023/07/20 11:28:00;;;;;;;;;;;;;;;21.67;76.26;101491.00;5004025;28;19926;-70
2023/07/20 11:30:26;;;;;;;;;;;;;;;21.87;74.75;101473.13;5007800;28;19940;-69
2023/07/20 11:32:51;;;;;;;;;;;;;;;22.80;76.70;101496.94;4971456;28;19925;-70
2023/07/20 11:35:16;;;;;;;;;;;;;;;22.92;72.03;101500.94;4986140;28;19972;-70
2023/07/20 11:37:41;;;;;;;;;;;;;;;23.66;64.10;101485.63;5006842;28;20012;-70
2023/07/20 11:40:07;;;;;;;;;;;;;;;24.94;59.65;101473.22;4971996;28;19931;-72
2023/07/20 11:42:33;;;;;;;;;;;;;;;25.40;58.06;101476.50;4992777;28;19952;-70
2023/07/20 11:45:00;;;;;;;;;;;;;;;24.90;57.65;101469.19;5004049;28;20304;-70
2023/07/20 11:47:28;;;;;;;;;;;;;;;24.68;63.72;101460.97;4970663;28;20394;-70
2023/07/20 11:49:54;;;;;;;;;;;;;;;23.93;65.99;101463.16;4991452;28;20419;-70
2023/07/20 11:52:19;;;;;;;;;;;;;;;24.40;67.27;101459.03;4974084;28;19925;-70
2023/07/20 11:54:44;;;;;;;;;;;;;;;25.51;62.97;101464.94;4988149;28;20233;-74
2023/07/20 11:57:19;;;;;;;;;;;;;;;26.42;57.67;101459.28;4987006;28;19960;-71
2023/07/20 11:59:57;;;;;;;;;;;;;;;26.27;54.28;101462.25;4987017;28;19929;-70
2023/07/20 12:02:22;;;;;;;;;;;;;;;26.29;53.81;101454.63;4987337;28;19929;-71
2023/07/20 12:04:47;;;;;;;;;;;;;;;25.56;55.72;101459.69;4987608;28;20019;-70
2023/07/20 12:07:13;;;;;;;;;;;;;;;25.07;56.79;101446.91;4986353;28;20277;-70
2023/07/20 12:09:38;;;;;;;;;;;;;;;26.16;60.21;101455.44;4975336;28;20429;-71
2023/07/20 12:12:09;;;;;;;;;;;;;;;27.21;53.86;101453.97;5002223;28;20639;-72
2023/07/20 12:14:34;;;;;;;;;;;;;;;28.08;55.31;101444.47;4986846;28;19925;-71
2023/07/20 12:16:59;;;;;;;;;;;;;;;28.86;52.94;101432.25;4988181;28;19925;-72
2023/07/20 12:19:25;;;;;;;;;;;;;;;28.69;48.06;101439.38;4989322;28;19987;-72
2023/07/20 12:21:50;;;;;;;;;;;;;;;28.16;46.20;101446.19;4991329;28;19994;-73